Time;durP1;ratioP1;P1;durP2;ratioP2;P2;SDS_P1;SDS_P2;PMS_P1;PMS_P2;Temp;Humidity;BMP_temperature;BMP_pressure;BME280_temperature;BME280_humidity;BME280_pressure;Samples;Min_cycle;Max_cycle;Signal;HPM_P1;HPM_P2
2021/01/12 00:02:18;;;;;;;16.08;11.10;;;-3.20;99.90;;;;;;4989533;28;20250;-75
2021/01/12 00:04:45;;;;;;;15.70;10.38;;;-3.20;99.90;;;;;;4991353;28;20262;-75
2021/01/12 00:07:12;;;;;;;18.27;11.18;;;-3.10;99.90;;;;;;4991439;28;20223;-74
2021/01/12 00:09:39;;;;;;;17.20;10.55;;;-3.10;99.90;;;;;;4991033;28;20206;-75
2021/01/12 00:12:06;;;;;;;18.20;10.98;;;-3.00;99.90;;;;;;4993288;28;20244;-74
2021/01/12 00:14:32;;;;;;;16.45;10.68;;;-3.10;99.90;;;;;;4990494;28;20953;-74
2021/01/12 00:17:00;;;;;;;19.02;11.63;;;-3.00;99.90;;;;;;4991236;28;20203;-75
2021/01/12 00:19:26;;;;;;;17.77;11.10;;;-3.00;99.90;;;;;;4990984;28;20207;-74
2021/01/12 00:21:53;;;;;;;17.83;11.23;;;-3.00;99.90;;;;;;4995054;28;20207;-75
2021/01/12 00:24:20;;;;;;;17.42;11.10;;;-3.00;99.90;;;;;;4997350;28;20931;-74
2021/01/12 00:26:47;;;;;;;18.48;10.77;;;-3.00;99.90;;;;;;4996682;28;20277;-75
2021/01/12 00:29:14;;;;;;;18.00;11.63;;;-3.00;99.90;;;;;;4990634;28;20223;-75
2021/01/12 00:31:41;;;;;;;16.60;10.38;;;-3.00;99.90;;;;;;4990464;28;20211;-75
2021/01/12 00:34:07;;;;;;;21.65;12.55;;;-3.00;99.90;;;;;;4991115;28;20719;-74
2021/01/12 00:36:40;;;;;;;19.58;11.10;;;-3.00;99.90;;;;;;4991259;28;20207;-74
2021/01/12 00:39:07;;;;;;;17.30;11.52;;;-3.00;99.90;;;;;;4990866;28;20222;-74
2021/01/12 00:41:33;;;;;;;17.35;10.38;;;-2.90;99.90;;;;;;4989256;28;20479;-74
2021/01/12 00:44:00;;;;;;;16.50;11.68;;;-2.90;99.90;;;;;;4990157;28;20223;-74
2021/01/12 00:46:27;;;;;;;14.57;9.52;;;-2.80;99.90;;;;;;4990436;28;20211;-74
2021/01/12 00:48:53;;;;;;;16.10;10.10;;;-2.80;99.90;;;;;;4990681;28;20227;-74
2021/01/12 00:51:19;;;;;;;17.42;11.13;;;-2.80;99.90;;;;;;4989737;28;20249;-75
2021/01/12 00:53:45;;;;;;;14.70;10.50;;;-2.80;99.90;;;;;;4993551;28;20223;-74
2021/01/12 00:56:13;;;;;;;18.17;11.25;;;-2.80;99.90;;;;;;4990227;28;20199;-74
2021/01/12 00:58:39;;;;;;;15.18;10.15;;;-2.80;99.90;;;;;;4990547;28;20225;-74
2021/01/12 01:01:06;;;;;;;17.98;11.18;;;-2.80;99.90;;;;;;4989885;28;20211;-74
2021/01/12 01:03:32;;;;;;;19.48;10.95;;;-2.80;99.90;;;;;;4989036;28;20253;-73
2021/01/12 01:05:59;;;;;;;16.05;10.65;;;-2.80;99.90;;;;;;4990057;28;20211;-73
2021/01/12 01:08:25;;;;;;;14.95;9.30;;;-2.80;99.90;;;;;;4989976;28;20596;-73
2021/01/12 01:10:51;;;;;;;12.80;9.57;;;-2.70;99.90;;;;;;4989892;28;20199;-74
2021/01/12 01:13:18;;;;;;;18.13;10.43;;;-2.70;99.90;;;;;;4989256;28;20199;-74
2021/01/12 01:15:44;;;;;;;15.50;10.10;;;-2.60;99.90;;;;;;4989642;28;20223;-75
2021/01/12 01:18:11;;;;;;;13.23;8.98;;;-2.50;99.90;;;;;;4989939;28;20237;-75
2021/01/12 01:20:37;;;;;;;21.02;10.52;;;-2.50;99.90;;;;;;4989775;28;20204;-75
2021/01/12 01:23:03;;;;;;;15.30;9.70;;;-2.50;99.90;;;;;;4992962;28;20210;-75
2021/01/12 01:25:29;;;;;;;13.35;9.07;;;-2.40;99.90;;;;;;4999400;28;20233;-75
2021/01/12 01:27:56;;;;;;;20.35;11.27;;;-2.40;99.90;;;;;;5009171;28;20222;-75
2021/01/12 01:30:22;;;;;;;15.07;10.48;;;-2.30;99.90;;;;;;5005356;28;20234;-75
2021/01/12 01:32:48;;;;;;;14.98;9.85;;;-2.20;99.90;;;;;;4989441;28;20207;-74
2021/01/12 01:35:15;;;;;;;18.17;10.75;;;-2.20;99.90;;;;;;4987327;28;20652;-73
2021/01/12 01:37:41;;;;;;;13.43;8.60;;;-2.20;99.90;;;;;;4989632;28;20199;-74
2021/01/12 01:40:08;;;;;;;17.70;10.25;;;-2.20;99.90;;;;;;4989348;28;20210;-74
2021/01/12 01:42:36;;;;;;;13.43;9.02;;;-2.20;99.90;;;;;;4988798;28;20218;-75
2021/01/12 01:45:07;;;;;;;15.32;9.00;;;-2.20;99.90;;;;;;4989641;28;20337;-74
2021/01/12 01:47:34;;;;;;;12.32;8.95;;;-2.10;99.90;;;;;;4989474;28;20230;-74
2021/01/12 01:50:01;;;;;;;13.05;8.63;;;-2.10;99.90;;;;;;4989780;28;20582;-74
2021/01/12 01:52:28;;;;;;;15.50;9.80;;;-2.00;99.90;;;;;;4990935;28;20202;-75
2021/01/12 01:54:57;;;;;;;12.38;9.23;;;-2.00;99.90;;;;;;4989439;28;20640;-73
2021/01/12 01:57:24;;;;;;;11.05;7.90;;;-2.00;99.90;;;;;;4988852;28;20203;-74
2021/01/12 01:59:52;;;;;;;13.10;8.77;;;-2.00;99.90;;;;;;4989575;28;20211;-75
2021/01/12 02:02:19;;;;;;;11.30;7.93;;;-1.90;99.90;;;;;;4987475;28;20238;-74
2021/01/12 02:04:47;;;;;;;14.70;8.32;;;-1.90;99.90;;;;;;4989068;28;20898;-75
2021/01/12 02:07:14;;;;;;;15.23;9.52;;;-1.90;99.90;;;;;;4989184;28;20203;-75
2021/01/12 02:09:47;;;;;;;12.93;9.18;;;-1.90;99.90;;;;;;4989032;28;20207;-74
2021/01/12 02:12:20;;;;;;;14.48;8.07;;;-1.90;99.90;;;;;;4989178;28;20215;-74
2021/01/12 02:14:48;;;;;;;11.43;8.07;;;-1.90;99.90;;;;;;4989250;28;20226;-74
2021/01/12 02:17:15;;;;;;;10.85;8.10;;;-1.90;99.90;;;;;;4988755;28;20226;-73
2021/01/12 02:19:42;;;;;;;12.30;7.78;;;-1.80;99.90;;;;;;4989023;28;20210;-75
2021/01/12 02:22:08;;;;;;;11.70;7.85;;;-1.80;99.90;;;;;;4991574;28;20346;-75
2021/01/12 02:24:37;;;;;;;12.77;8.63;;;-1.80;99.90;;;;;;4989611;28;20227;-74
2021/01/12 02:27:03;;;;;;;12.43;7.35;;;-1.80;99.90;;;;;;4989079;28;20202;-74
2021/01/12 02:29:30;;;;;;;13.32;8.00;;;-1.80;99.90;;;;;;4988503;28;20199;-74
2021/01/12 02:31:56;;;;;;;10.65;7.38;;;-1.70;99.90;;;;;;4987805;28;20574;-74
2021/01/12 02:34:25;;;;;;;10.35;7.28;;;-1.70;99.90;;;;;;4988715;28;20222;-74
2021/01/12 02:36:53;;;;;;;9.88;7.63;;;-1.70;99.90;;;;;;4989061;28;20640;-74
2021/01/12 02:39:19;;;;;;;11.55;7.57;;;-1.70;99.90;;;;;;4988899;28;20414;-74
2021/01/12 02:41:46;;;;;;;9.65;6.55;;;-1.70;99.90;;;;;;4987796;28;20199;-74
2021/01/12 02:44:21;;;;;;;11.57;7.65;;;-1.70;99.90;;;;;;4989080;28;20599;-74
2021/01/12 02:46:48;;;;;;;10.45;7.25;;;-1.70;99.90;;;;;;4989015;28;20230;-74
2021/01/12 02:49:15;;;;;;;9.45;7.05;;;-1.70;99.90;;;;;;4988765;28;20234;-74
2021/01/12 02:51:41;;;;;;;9.27;6.90;;;-1.60;99.90;;;;;;4999332;28;20198;-74
2021/01/12 02:54:07;;;;;;;11.45;7.35;;;-1.60;99.90;;;;;;4992670;28;20266;-74
2021/01/12 02:56:33;;;;;;;9.00;7.15;;;-1.60;99.90;;;;;;4988847;28;20199;-74
2021/01/12 02:59:00;;;;;;;12.55;7.25;;;-1.50;99.90;;;;;;4989176;28;20215;-74
2021/01/12 03:01:26;;;;;;;8.27;6.53;;;-1.50;99.90;;;;;;4988872;28;20203;-74
2021/01/12 03:03:52;;;;;;;9.32;6.43;;;-1.50;99.90;;;;;;4990535;28;20281;-73
2021/01/12 03:06:19;;;;;;;11.90;7.38;;;-1.50;99.90;;;;;;4992461;28;20690;-73
2021/01/12 03:08:45;;;;;;;11.45;6.93;;;-1.50;99.90;;;;;;4993026;28;20223;-74
2021/01/12 03:11:11;;;;;;;13.48;6.70;;;-1.40;99.90;;;;;;4992280;28;20203;-73
2021/01/12 03:13:37;;;;;;;9.32;6.60;;;-1.40;99.90;;;;;;5011384;28;20202;-74
2021/01/12 03:16:05;;;;;;;7.20;5.75;;;-1.40;99.90;;;;;;5012254;28;20203;-74
2021/01/12 03:18:31;;;;;;;8.95;6.20;;;-1.40;99.90;;;;;;5011885;28;20249;-74
2021/01/12 03:20:58;;;;;;;7.30;5.22;;;-1.30;99.90;;;;;;5012090;28;20206;-74
2021/01/12 03:23:25;;;;;;;10.43;7.38;;;-1.30;99.90;;;;;;5001961;28;20211;-73
2021/01/12 03:25:51;;;;;;;8.90;6.70;;;-1.20;99.90;;;;;;4992424;28;20199;-73
2021/01/12 03:28:17;;;;;;;8.45;6.13;;;-1.20;99.90;;;;;;4992615;28;20636;-74
2021/01/12 03:30:43;;;;;;;8.30;6.32;;;-1.20;99.90;;;;;;4993016;28;20216;-73
2021/01/12 03:33:10;;;;;;;9.77;5.90;;;-1.20;99.90;;;;;;5011263;28;20261;-73
2021/01/12 03:35:37;;;;;;;9.20;6.22;;;-1.20;99.90;;;;;;4992864;28;20223;-74
2021/01/12 03:38:03;;;;;;;7.88;6.10;;;-1.20;99.90;;;;;;4992460;28;20199;-74
2021/01/12 03:40:29;;;;;;;10.82;6.88;;;-1.10;99.90;;;;;;4991665;28;20207;-74
2021/01/12 03:42:55;;;;;;;8.52;5.78;;;-1.10;99.90;;;;;;4991497;28;20595;-74
2021/01/12 03:45:22;;;;;;;8.90;5.85;;;-1.00;99.90;;;;;;4991854;28;20220;-74
2021/01/12 03:47:48;;;;;;;7.93;5.88;;;-1.00;99.90;;;;;;4992149;28;20309;-74
2021/01/12 03:50:16;;;;;;;8.57;6.22;;;-1.00;99.90;;;;;;4991804;28;20207;-74
2021/01/12 03:52:42;;;;;;;8.77;6.45;;;-1.00;99.90;;;;;;4995322;28;20199;-74
2021/01/12 03:55:09;;;;;;;8.20;5.85;;;-1.00;99.90;;;;;;4991651;28;20223;-74
2021/01/12 03:57:35;;;;;;;8.43;6.18;;;-1.00;99.90;;;;;;4991121;28;20204;-74
2021/01/12 04:00:02;;;;;;;7.10;5.38;;;-1.00;99.90;;;;;;4991929;28;20204;-73
2021/01/12 04:02:28;;;;;;;7.45;5.55;;;-1.00;99.90;;;;;;4991474;28;20203;-74
2021/01/12 04:04:55;;;;;;;8.15;5.75;;;-1.00;99.90;;;;;;4991821;28;20293;-74
2021/01/12 04:07:23;;;;;;;9.38;6.07;;;-1.00;99.90;;;;;;4991560;28;20230;-73
2021/01/12 04:09:50;;;;;;;7.55;5.35;;;-1.00;99.90;;;;;;4991716;28;20214;-74
2021/01/12 04:12:16;;;;;;;8.98;6.05;;;-0.90;99.90;;;;;;4991035;28;20207;-73
2021/01/12 04:14:42;;;;;;;8.13;6.65;;;-1.00;99.90;;;;;;4990550;28;20223;-74
2021/01/12 04:17:09;;;;;;;9.57;6.43;;;-1.00;99.90;;;;;;4991525;28;20199;-74
2021/01/12 04:19:35;;;;;;;8.07;5.35;;;-1.00;99.90;;;;;;4991464;28;20718;-73
2021/01/12 04:22:01;;;;;;;9.00;6.05;;;-1.00;99.90;;;;;;4992291;28;20210;-74
2021/01/12 04:24:28;;;;;;;8.60;5.70;;;-0.90;99.90;;;;;;5010384;28;20222;-74
2021/01/12 04:26:54;;;;;;;7.50;5.55;;;-0.90;99.90;;;;;;5011045;28;20207;-74
2021/01/12 04:29:20;;;;;;;10.35;6.15;;;-0.80;99.90;;;;;;5010607;28;20230;-73
2021/01/12 04:31:47;;;;;;;7.90;6.07;;;-0.80;99.90;;;;;;5010552;28;20333;-73
2021/01/12 04:34:13;;;;;;;8.18;5.57;;;-0.80;99.90;;;;;;5010365;28;20222;-73
2021/01/12 04:36:39;;;;;;;7.85;5.93;;;-0.80;99.90;;;;;;5010586;28;20198;-73
2021/01/12 04:39:05;;;;;;;6.47;4.97;;;-0.80;99.90;;;;;;5007663;28;20260;-75
2021/01/12 04:41:33;;;;;;;9.50;6.10;;;-0.80;99.90;;;;;;4997754;28;20230;-74
2021/01/12 04:43:59;;;;;;;10.50;5.95;;;-0.70;99.90;;;;;;4994848;28;20233;-74
2021/01/12 04:46:25;;;;;;;7.65;6.20;;;-0.80;99.90;;;;;;5006872;28;20199;-74
2021/01/12 04:48:51;;;;;;;9.50;5.68;;;-0.80;99.90;;;;;;5000966;28;20229;-74
2021/01/12 04:51:18;;;;;;;9.35;6.38;;;-0.80;99.90;;;;;;5003471;28;20194;-76
2021/01/12 04:53:47;;;;;;;8.30;5.65;;;-0.80;99.90;;;;;;4996517;28;20195;-74
2021/01/12 04:56:14;;;;;;;10.32;6.63;;;-0.80;99.90;;;;;;4997509;28;20195;-74
2021/01/12 04:58:42;;;;;;;9.30;6.80;;;-0.80;99.90;;;;;;5000721;28;20219;-73
2021/01/12 05:01:10;;;;;;;9.95;7.07;;;-0.80;99.90;;;;;;4996653;28;20205;-73
2021/01/12 05:03:36;;;;;;;7.90;6.20;;;-0.80;99.90;;;;;;5000494;28;20249;-72
2021/01/12 05:06:03;;;;;;;8.60;6.30;;;-0.80;99.90;;;;;;4998839;28;20636;-73
2021/01/12 05:08:29;;;;;;;13.05;7.03;;;-0.80;99.90;;;;;;4997994;28;20218;-74
2021/01/12 05:10:58;;;;;;;9.45;6.65;;;-0.90;99.90;;;;;;4990376;28;20690;-75
2021/01/12 05:13:26;;;;;;;10.27;7.10;;;-0.80;99.90;;;;;;4989396;28;20326;-76
2021/01/12 05:15:53;;;;;;;9.43;6.63;;;-0.90;99.90;;;;;;4990740;28;20211;-76
2021/01/12 05:18:20;;;;;;;10.23;7.00;;;-0.80;99.90;;;;;;4990163;28;20553;-75
2021/01/12 05:20:50;;;;;;;9.75;7.00;;;-0.90;99.90;;;;;;4990254;28;20207;-75
2021/01/12 05:23:23;;;;;;;8.98;6.60;;;-0.90;99.90;;;;;;4992825;28;20218;-76
2021/01/12 05:25:52;;;;;;;9.65;6.68;;;-0.80;99.90;;;;;;5002099;28;20222;-75
2021/01/12 05:28:18;;;;;;;9.57;6.60;;;-0.80;99.90;;;;;;5009187;28;20221;-76
2021/01/12 05:30:47;;;;;;;8.15;6.05;;;-0.80;99.90;;;;;;5165526;23;20203;-73
2021/01/12 05:33:18;;;;;;;7.30;6.07;;;-0.70;99.90;;;;;;5007242;28;20293;-72
2021/01/12 05:35:47;;;;;;;8.23;6.15;;;-0.70;99.90;;;;;;4970888;28;20227;-72
2021/01/12 05:38:24;;;;;;;8.52;6.10;;;-0.60;99.90;;;;;;4972722;28;20227;-72
2021/01/12 05:40:54;;;;;;;8.27;5.78;;;-0.60;99.90;;;;;;4977556;28;20235;-71
2021/01/12 05:43:30;;;;;;;8.25;6.32;;;-0.60;99.90;;;;;;4975560;28;20203;-73
2021/01/12 05:45:56;;;;;;;9.68;6.35;;;-0.60;99.90;;;;;;4972515;28;20632;-73
2021/01/12 05:48:26;;;;;;;9.73;6.57;;;-0.60;99.90;;;;;;4969997;28;20228;-73
2021/01/12 05:50:57;;;;;;;7.47;6.15;;;-0.60;99.90;;;;;;4970207;28;20236;-74
2021/01/12 05:53:33;;;;;;;7.68;5.03;;;-0.60;99.90;;;;;;4978309;28;20679;-73
2021/01/12 05:56:02;;;;;;;8.00;6.70;;;-0.50;99.90;;;;;;4989005;28;20689;-72
2021/01/12 05:58:30;;;;;;;6.97;5.75;;;-0.50;99.90;;;;;;4989095;28;20537;-73
2021/01/12 06:01:01;;;;;;;7.68;5.70;;;-0.50;99.90;;;;;;4986170;28;20205;-73
2021/01/12 06:03:30;;;;;;;8.30;5.68;;;-0.40;99.90;;;;;;4988441;28;20221;-73
2021/01/12 06:05:56;;;;;;;6.22;4.97;;;-0.40;99.90;;;;;;4982384;28;20639;-72
2021/01/12 06:08:23;;;;;;;9.02;6.18;;;-0.40;99.90;;;;;;4977321;28;20266;-74
2021/01/12 06:10:51;;;;;;;8.32;5.53;;;-0.40;99.90;;;;;;4978630;28;20235;-72
2021/01/12 06:13:18;;;;;;;8.75;6.00;;;-0.40;99.90;;;;;;4979780;28;20572;-72
2021/01/12 06:15:45;;;;;;;9.50;5.53;;;-0.40;99.90;;;;;;4989372;28;20227;-71
2021/01/12 06:18:13;;;;;;;8.15;5.65;;;-0.50;99.90;;;;;;4989499;28;20210;-71
2021/01/12 06:20:56;;;;;;;9.20;5.90;;;-0.50;99.90;;;;;;4977499;28;20218;-73
2021/01/12 06:23:27;;;;;;;8.90;6.20;;;-0.50;99.90;;;;;;4978937;28;20204;-73
2021/01/12 06:25:54;;;;;;;9.05;5.90;;;-0.60;99.90;;;;;;4974173;28;20273;-73
2021/01/12 06:28:20;;;;;;;7.65;5.55;;;-0.50;99.90;;;;;;4972307;28;20218;-72
2021/01/12 06:30:47;;;;;;;9.90;6.30;;;-0.50;99.90;;;;;;4978991;28;20219;-72
2021/01/12 06:33:13;;;;;;;7.15;5.10;;;-0.50;99.90;;;;;;4979866;28;20207;-73
2021/01/12 06:35:41;;;;;;;9.40;6.30;;;-0.40;99.90;;;;;;4979675;28;20544;-72
2021/01/12 06:38:10;;;;;;;7.45;5.50;;;-0.40;99.90;;;;;;4980207;28;20663;-72
2021/01/12 06:40:37;;;;;;;8.57;5.93;;;-0.40;99.90;;;;;;4981410;28;20221;-73
2021/01/12 06:43:06;;;;;;;10.43;6.60;;;-0.40;99.90;;;;;;4982776;28;20208;-73
2021/01/12 06:45:36;;;;;;;7.45;5.95;;;-0.40;99.90;;;;;;4983833;28;20279;-72
2021/01/12 06:48:05;;;;;;;7.05;4.88;;;-0.40;99.90;;;;;;4984522;28;20702;-73
2021/01/12 06:50:32;;;;;;;6.88;4.85;;;-0.40;99.90;;;;;;4981705;28;20192;-72
2021/01/12 06:52:59;;;;;;;6.70;5.00;;;-0.30;99.90;;;;;;4985981;28;20203;-72
2021/01/12 06:55:26;;;;;;;9.07;6.00;;;-0.30;99.90;;;;;;4984425;28;20221;-73
2021/01/12 06:57:54;;;;;;;6.85;4.72;;;-0.30;99.90;;;;;;4982219;28;20679;-72
2021/01/12 07:00:21;;;;;;;7.78;5.53;;;-0.30;99.90;;;;;;4980558;28;20199;-74
2021/01/12 07:02:55;;;;;;;7.97;5.30;;;-0.20;99.90;;;;;;4972847;28;20577;-73
2021/01/12 07:05:21;;;;;;;7.32;5.07;;;-0.20;99.90;;;;;;4973178;28;20251;-73
2021/01/12 07:07:49;;;;;;;10.10;5.80;;;-0.20;99.90;;;;;;4973023;28;20266;-72
2021/01/12 07:10:16;;;;;;;7.47;5.28;;;-0.10;99.90;;;;;;4973559;28;20212;-73
2021/01/12 07:12:44;;;;;;;8.10;5.03;;;-0.10;99.90;;;;;;5007326;28;20225;-72
2021/01/12 07:15:12;;;;;;;7.93;5.45;;;-0.10;99.90;;;;;;5012067;28;20230;-73
2021/01/12 07:17:43;;;;;;;9.27;4.78;;;-0.10;99.90;;;;;;5012463;28;20588;-73
2021/01/12 07:20:12;;;;;;;6.93;5.13;;;0.00;99.90;;;;;;5012412;28;20622;-72
2021/01/12 07:22:40;;;;;;;7.45;5.25;;;0.00;99.90;;;;;;5010414;28;20233;-72
2021/01/12 07:25:09;;;;;;;7.15;5.68;;;0.00;99.90;;;;;;5011873;28;20321;-73
2021/01/12 07:27:36;;;;;;;6.47;4.88;;;0.00;99.90;;;;;;5002953;28;20233;-73
2021/01/12 07:30:05;;;;;;;7.90;5.00;;;0.00;99.90;;;;;;4992312;28;20625;-73
2021/01/12 07:32:35;;;;;;;6.97;5.47;;;0.10;99.90;;;;;;4987929;28;20238;-73
2021/01/12 07:35:06;;;;;;;7.10;4.95;;;0.10;99.90;;;;;;4977704;28;20230;-73
2021/01/12 07:37:38;;;;;;;7.80;4.50;;;0.20;99.90;;;;;;4982624;28;20207;-74
2021/01/12 07:40:07;;;;;;;6.35;5.03;;;0.20;99.90;;;;;;4986788;28;20206;-74
2021/01/12 07:42:35;;;;;;;6.13;4.85;;;0.20;99.90;;;;;;4997270;28;20203;-73
2021/01/12 07:45:01;;;;;;;9.38;5.70;;;0.20;99.90;;;;;;4989170;28;20578;-73
2021/01/12 07:47:28;;;;;;;6.90;4.85;;;0.20;99.90;;;;;;4991913;28;20229;-73
2021/01/12 07:49:56;;;;;;;9.38;5.85;;;0.20;99.90;;;;;;4991234;28;20234;-72
2021/01/12 07:52:23;;;;;;;7.03;5.15;;;0.30;99.90;;;;;;5005083;28;20211;-73
2021/01/12 07:54:50;;;;;;;5.28;4.38;;;0.30;99.90;;;;;;5004059;28;20780;-73
2021/01/12 07:57:17;;;;;;;9.00;6.22;;;0.30;99.90;;;;;;5011504;28;20209;-72
2021/01/12 07:59:43;;;;;;;5.78;4.78;;;0.30;99.90;;;;;;4990853;28;20674;-72
2021/01/12 08:02:11;;;;;;;6.80;5.45;;;0.30;99.90;;;;;;4975777;28;20715;-74
2021/01/12 08:04:40;;;;;;;8.10;5.75;;;0.30;99.90;;;;;;4987516;28;20714;-72
2021/01/12 08:07:07;;;;;;;6.43;4.95;;;0.40;99.90;;;;;;4990412;28;20210;-73
2021/01/12 08:09:34;;;;;;;5.85;4.93;;;0.40;99.90;;;;;;4989232;28;20247;-72
2021/01/12 08:12:03;;;;;;;6.90;4.70;;;0.40;99.90;;;;;;4976099;28;20261;-72
2021/01/12 08:14:29;;;;;;;7.35;5.57;;;0.40;99.90;;;;;;4986583;28;20769;-73
2021/01/12 08:16:56;;;;;;;6.18;4.93;;;0.40;99.90;;;;;;4981009;28;20210;-73
2021/01/12 08:19:24;;;;;;;7.05;5.00;;;0.40;99.90;;;;;;4989976;28;20191;-73
2021/01/12 08:21:51;;;;;;;7.78;5.05;;;0.50;99.90;;;;;;4990652;28;20253;-73
2021/01/12 08:24:22;;;;;;;8.93;5.50;;;0.50;99.90;;;;;;4990637;28;20717;-73
2021/01/12 08:26:49;;;;;;;6.80;4.75;;;0.50;99.90;;;;;;4991502;28;20214;-73
2021/01/12 08:29:21;;;;;;;8.88;5.22;;;0.60;99.90;;;;;;5008379;28;20234;-74
2021/01/12 08:31:50;;;;;;;6.50;4.85;;;0.60;99.90;;;;;;5000642;28;20226;-72
2021/01/12 08:34:21;;;;;;;5.35;4.32;;;0.60;99.90;;;;;;5010625;28;20783;-73
2021/01/12 08:36:50;;;;;;;6.38;4.22;;;0.70;99.90;;;;;;5010939;28;20225;-73
2021/01/12 08:39:17;;;;;;;6.38;4.10;;;0.70;99.90;;;;;;5010553;28;20237;-73
2021/01/12 08:41:46;;;;;;;6.25;5.03;;;0.70;99.90;;;;;;5010048;28;20206;-74
2021/01/12 08:44:14;;;;;;;5.53;3.90;;;0.70;99.90;;;;;;5010490;28;20233;-73
2021/01/12 08:46:40;;;;;;;5.65;4.20;;;0.80;99.90;;;;;;5010222;28;20210;-73
2021/01/12 08:49:06;;;;;;;6.25;4.22;;;0.80;99.90;;;;;;5010435;28;20237;-73
2021/01/12 08:51:33;;;;;;;5.03;3.88;;;0.80;99.90;;;;;;5009939;28;20202;-73
2021/01/12 08:54:00;;;;;;;5.35;4.22;;;0.80;99.90;;;;;;5009499;28;20225;-74
2021/01/12 08:56:27;;;;;;;5.85;4.60;;;0.90;99.90;;;;;;5009923;28;20260;-73
2021/01/12 08:59:07;;;;;;;7.88;4.38;;;0.90;99.90;;;;;;5005838;28;20195;-73
2021/01/12 09:01:37;;;;;;;4.90;4.40;;;0.90;99.90;;;;;;4996684;28;20210;-73
2021/01/12 09:04:08;;;;;;;5.15;3.90;;;0.90;99.90;;;;;;5010006;28;20246;-73
2021/01/12 09:06:35;;;;;;;5.88;4.07;;;0.90;99.90;;;;;;4970876;28;20691;-74
2021/01/12 09:09:06;;;;;;;7.05;4.53;;;0.90;99.90;;;;;;4971102;28;20329;-73
2021/01/12 09:11:38;;;;;;;6.28;4.30;;;0.90;99.90;;;;;;4970544;28;20203;-73
2021/01/12 09:14:08;;;;;;;6.97;4.70;;;1.00;99.90;;;;;;4970705;28;20251;-73
2021/01/12 09:16:34;;;;;;;5.07;4.30;;;1.00;99.90;;;;;;4970263;28;20200;-73
2021/01/12 09:19:13;;;;;;;5.15;4.00;;;1.00;99.90;;;;;;4970958;28;20578;-74
2021/01/12 09:21:39;;;;;;;6.95;4.60;;;1.00;99.90;;;;;;4986014;28;20249;-74
2021/01/12 09:24:07;;;;;;;5.95;4.50;;;1.00;99.90;;;;;;5010082;28;20230;-73
2021/01/12 09:26:35;;;;;;;5.10;3.75;;;1.00;99.90;;;;;;5009638;28;20298;-74
2021/01/12 09:29:03;;;;;;;5.80;3.80;;;1.10;99.90;;;;;;5009557;28;20518;-72
2021/01/12 09:31:29;;;;;;;4.50;3.83;;;1.10;99.90;;;;;;5008783;28;20267;-74
2021/01/12 09:33:57;;;;;;;5.30;3.58;;;1.10;99.90;;;;;;5009329;28;20250;-74
2021/01/12 09:36:30;;;;;;;4.50;3.28;;;1.20;99.90;;;;;;5009935;28;20560;-71
2021/01/12 09:38:56;;;;;;;2.95;2.63;;;1.20;99.90;;;;;;5009633;28;20202;-75
2021/01/12 09:41:25;;;;;;;4.05;2.60;;;1.30;99.90;;;;;;5008001;28;20202;-74
2021/01/12 09:43:52;;;;;;;2.45;2.10;;;1.40;99.90;;;;;;5009353;28;20592;-73
2021/01/12 09:46:19;;;;;;;2.45;2.25;;;1.40;99.90;;;;;;5009510;28;20203;-73
2021/01/12 09:48:46;;;;;;;2.63;2.05;;;1.40;99.90;;;;;;5009290;28;20284;-73
2021/01/12 09:51:14;;;;;;;2.50;2.28;;;1.50;99.90;;;;;;5009434;28;20206;-73
2021/01/12 09:53:41;;;;;;;3.33;2.03;;;1.50;99.90;;;;;;4991639;28;20629;-72
2021/01/12 09:56:10;;;;;;;3.67;2.38;;;1.60;99.90;;;;;;5009366;28;20260;-74
2021/01/12 09:58:36;;;;;;;3.00;1.85;;;1.60;99.90;;;;;;4991967;28;20203;-73
2021/01/12 10:01:03;;;;;;;2.40;1.88;;;1.60;99.90;;;;;;4989339;28;20203;-73
2021/01/12 10:03:31;;;;;;;2.00;1.80;;;1.60;99.90;;;;;;4988953;28;20203;-73
2021/01/12 10:05:57;;;;;;;2.30;1.95;;;1.60;99.90;;;;;;4989592;28;20568;-74
2021/01/12 10:08:25;;;;;;;2.53;2.17;;;1.60;99.90;;;;;;4989413;28;20611;-74
2021/01/12 10:10:52;;;;;;;2.33;1.90;;;1.60;99.90;;;;;;4990343;28;20298;-72
2021/01/12 10:13:18;;;;;;;2.95;2.05;;;1.60;99.90;;;;;;4988101;28;20238;-75
2021/01/12 10:15:44;;;;;;;3.05;2.38;;;1.60;99.90;;;;;;4991741;28;20223;-75
2021/01/12 10:18:11;;;;;;;3.50;2.05;;;1.60;99.90;;;;;;4993882;28;20265;-75
2021/01/12 10:20:38;;;;;;;2.55;2.25;;;1.50;99.90;;;;;;5012078;28;20688;-74
2021/01/12 10:23:04;;;;;;;3.05;1.90;;;1.50;99.90;;;;;;5009555;28;20202;-74
2021/01/12 10:25:30;;;;;;;2.08;1.88;;;1.40;99.90;;;;;;5012004;28;20226;-74
2021/01/12 10:27:57;;;;;;;4.40;2.10;;;1.40;99.90;;;;;;5013001;28;20225;-74
2021/01/12 10:30:24;;;;;;;3.13;2.42;;;1.50;99.90;;;;;;5011663;28;20276;-74
2021/01/12 10:32:51;;;;;;;2.15;1.95;;;1.40;99.90;;;;;;5011245;28;20206;-73
2021/01/12 10:35:17;;;;;;;2.03;1.80;;;1.40;99.90;;;;;;5012558;28;20226;-74
2021/01/12 10:37:45;;;;;;;2.00;1.65;;;1.40;99.90;;;;;;5013046;28;20214;-73
2021/01/12 10:40:13;;;;;;;2.38;1.67;;;1.40;99.90;;;;;;5012480;28;20256;-73
2021/01/12 10:42:39;;;;;;;4.22;2.05;;;1.40;99.90;;;;;;5008694;28;20206;-73
2021/01/12 10:45:07;;;;;;;3.45;3.05;;;1.30;99.90;;;;;;5011522;28;20226;-72
2021/01/12 10:47:33;;;;;;;3.25;2.78;;;1.40;99.90;;;;;;5011979;28;20581;-72
2021/01/12 10:50:00;;;;;;;2.75;1.90;;;1.30;99.90;;;;;;5013060;28;20222;-73
2021/01/12 10:52:26;;;;;;;1.85;1.50;;;1.30;99.90;;;;;;5011606;28;20213;-72
2021/01/12 10:54:53;;;;;;;1.70;1.40;;;1.30;99.90;;;;;;5012572;28;20710;-72
2021/01/12 10:57:19;;;;;;;3.25;1.10;;;1.40;99.90;;;;;;5011183;28;20210;-73
2021/01/12 10:59:45;;;;;;;1.85;1.40;;;1.30;99.90;;;;;;5012343;28;20199;-72
2021/01/12 11:02:12;;;;;;;1.40;1.30;;;1.30;99.90;;;;;;5011940;28;20256;-73
2021/01/12 11:04:38;;;;;;;1.45;1.30;;;1.30;99.90;;;;;;5010655;28;20222;-74
2021/01/12 11:07:04;;;;;;;1.42;1.23;;;1.40;99.90;;;;;;5012526;28;20205;-73
2021/01/12 11:09:31;;;;;;;1.52;1.42;;;1.40;99.90;;;;;;5006743;28;20241;-73
2021/01/12 11:12:04;;;;;;;2.72;1.70;;;1.40;99.90;;;;;;5012558;28;20197;-72
2021/01/12 11:14:31;;;;;;;2.65;1.10;;;1.50;99.90;;;;;;5011657;28;20222;-73
2021/01/12 11:16:57;;;;;;;2.05;1.40;;;1.40;99.90;;;;;;5012991;28;20756;-73
2021/01/12 11:19:24;;;;;;;1.48;1.30;;;1.40;99.90;;;;;;5012955;28;20240;-73
2021/01/12 11:21:51;;;;;;;2.60;1.35;;;1.40;99.90;;;;;;5014996;28;20781;-72
2021/01/12 11:24:19;;;;;;;1.40;1.30;;;1.40;99.90;;;;;;5014056;28;20256;-74
2021/01/12 11:26:47;;;;;;;1.40;1.10;;;1.40;99.90;;;;;;5016644;28;20290;-73
2021/01/12 11:29:14;;;;;;;1.20;1.10;;;1.40;99.90;;;;;;5017407;28;20226;-72
2021/01/12 11:31:41;;;;;;;1.20;1.00;;;1.50;99.90;;;;;;5073043;23;20248;-77
2021/01/12 11:34:08;;;;;;;1.40;1.25;;;1.40;99.90;;;;;;5003523;28;20215;-78
2021/01/12 11:36:35;;;;;;;1.10;1.00;;;1.40;99.90;;;;;;4990004;28;20709;-77
2021/01/12 11:39:03;;;;;;;1.25;1.15;;;1.40;99.90;;;;;;4989426;28;20207;-78
2021/01/12 11:41:29;;;;;;;1.38;1.13;;;1.40;99.90;;;;;;4993118;28;20209;-77
2021/01/12 11:43:55;;;;;;;1.10;1.00;;;1.40;99.90;;;;;;5010635;28;20210;-77
2021/01/12 11:46:28;;;;;;;1.10;1.00;;;1.40;99.90;;;;;;5010719;28;20217;-78
2021/01/12 11:48:54;;;;;;;1.58;1.48;;;1.40;99.90;;;;;;5011703;28;20226;-76
2021/01/12 11:51:20;;;;;;;1.23;1.13;;;1.40;99.90;;;;;;5004309;28;20215;-77
2021/01/12 11:53:51;;;;;;;1.40;1.20;;;1.40;99.90;;;;;;4971302;28;20405;-77
2021/01/12 11:56:17;;;;;;;2.10;1.10;;;1.30;99.90;;;;;;4971338;28;20233;-77
2021/01/12 11:58:43;;;;;;;1.65;1.48;;;1.40;99.90;;;;;;4978849;28;20663;-77
2021/01/12 12:01:10;;;;;;;1.30;0.98;;;1.40;99.90;;;;;;5009880;28;20214;-76
2021/01/12 12:03:37;;;;;;;2.17;1.08;;;1.40;99.90;;;;;;5010516;28;20222;-77
2021/01/12 12:06:04;;;;;;;2.33;1.65;;;1.40;99.90;;;;;;5010850;28;20198;-76
2021/01/12 12:08:30;;;;;;;1.13;1.02;;;1.40;99.90;;;;;;5010634;28;20222;-77
2021/01/12 12:11:01;;;;;;;1.48;1.05;;;1.40;99.90;;;;;;5009648;28;20206;-77
2021/01/12 12:13:27;;;;;;;3.55;1.00;;;1.40;99.90;;;;;;5010240;28;20580;-77
2021/01/12 12:15:54;;;;;;;1.75;1.20;;;1.40;99.90;;;;;;5010962;28;20207;-77
2021/01/12 12:18:20;;;;;;;1.25;1.10;;;1.40;99.90;;;;;;5010590;28;20207;-77
2021/01/12 12:20:48;;;;;;;1.48;1.30;;;1.40;99.90;;;;;;5010931;28;20733;-77
2021/01/12 12:23:14;;;;;;;1.00;0.90;;;1.40;99.90;;;;;;5009607;28;20268;-77
2021/01/12 12:25:40;;;;;;;1.23;1.13;;;1.40;99.90;;;;;;5010603;28;20317;-77
2021/01/12 12:28:06;;;;;;;1.52;1.15;;;1.40;99.90;;;;;;5009649;28;20628;-76
2021/01/12 12:30:32;;;;;;;4.40;1.00;;;1.40;99.90;;;;;;5010922;28;20207;-77
2021/01/12 12:32:59;;;;;;;1.02;0.90;;;1.40;99.90;;;;;;5010038;28;20210;-75
2021/01/12 12:35:25;;;;;;;2.85;1.20;;;1.40;99.90;;;;;;5009764;28;20226;-76
2021/01/12 12:37:52;;;;;;;1.42;1.10;;;1.40;99.90;;;;;;5010614;28;20205;-75
2021/01/12 12:40:19;;;;;;;1.10;1.00;;;1.40;99.90;;;;;;5009861;28;20689;-75
2021/01/12 12:42:45;;;;;;;1.15;1.05;;;1.40;99.90;;;;;;5009492;28;20264;-75
2021/01/12 12:45:12;;;;;;;1.30;1.05;;;1.40;99.90;;;;;;5010284;28;20230;-74
2021/01/12 12:47:40;;;;;;;1.20;1.10;;;1.40;99.90;;;;;;5010058;28;20207;-74
2021/01/12 12:50:07;;;;;;;2.22;0.90;;;1.40;99.90;;;;;;5010246;28;20226;-74